createdAt,value
2022-12-04T00:01:23.747Z,18.45
2022-12-04T00:04:16.719Z,19.05
2022-12-04T00:07:02.120Z,18.20
2022-12-04T00:09:47.345Z,18.08
2022-12-04T00:12:34.838Z,18.63
2022-12-04T00:15:27.256Z,18.65
2022-12-04T00:18:12.516Z,19.77
2022-12-04T00:20:57.733Z,18.35
2022-12-04T00:23:44.187Z,19.92
2022-12-04T00:26:31.200Z,20.05
2022-12-04T00:29:16.575Z,21.23
2022-12-04T00:32:01.876Z,21.00
2022-12-04T00:34:47.555Z,21.73
2022-12-04T00:37:33.360Z,21.52
2022-12-04T00:40:18.535Z,21.40
2022-12-04T00:43:03.763Z,20.13
2022-12-04T00:45:49.531Z,22.13
2022-12-04T00:48:35.438Z,23.10
2022-12-04T00:51:23.590Z,22.15
2022-12-04T00:54:08.801Z,22.17
2022-12-04T00:56:54.103Z,23.25
2022-12-04T00:59:39.342Z,22.13
2022-12-04T01:02:24.549Z,22.90
2022-12-04T01:05:12.683Z,22.15
2022-12-04T01:07:57.601Z,22.90
2022-12-04T01:10:42.915Z,21.08
2022-12-04T01:13:28.236Z,21.92
2022-12-04T01:16:26.900Z,21.80
2022-12-04T01:19:12.624Z,20.65
2022-12-04T01:21:57.508Z,20.55
2022-12-04T01:24:42.851Z,20.33
2022-12-04T01:27:28.012Z,20.05
2022-12-04T01:30:13.620Z,20.95
2022-12-04T01:32:58.795Z,20.48
2022-12-04T01:35:52.776Z,19.90
2022-12-04T01:38:38.642Z,21.15
2022-12-04T01:41:26.630Z,20.38
2022-12-04T01:44:23.409Z,20.23
2022-12-04T01:47:10.537Z,21.80
2022-12-04T01:49:55.933Z,19.27
2022-12-04T01:52:41.754Z,20.80
2022-12-04T01:55:26.736Z,20.35
2022-12-04T01:58:12.560Z,21.13
2022-12-04T02:01:07.950Z,20.83
2022-12-04T02:03:54.234Z,20.60
2022-12-04T02:06:39.545Z,20.52
2022-12-04T02:09:27.037Z,20.27
2022-12-04T02:12:37.774Z,20.17
2022-12-04T02:15:44.944Z,21.23
2022-12-04T02:18:46.355Z,21.08
2022-12-04T02:21:38.774Z,20.92
2022-12-04T02:25:18.647Z,20.58
2022-12-04T02:28:23.034Z,21.38
2022-12-04T02:31:15.448Z,21.60
2022-12-04T02:34:09.686Z,20.90
2022-12-04T02:37:03.788Z,21.42
2022-12-04T02:39:59.617Z,21.98
2022-12-04T02:42:50.013Z,21.75
2022-12-04T02:45:46.661Z,21.30
2022-12-04T02:48:36.415Z,24.95
2022-12-04T02:51:26.089Z,21.45
2022-12-04T02:57:03.007Z,21.20
2022-12-04T02:59:50.628Z,22.17
2022-12-04T03:02:46.261Z,22.52
2022-12-04T03:05:41.620Z,22.67
2022-12-04T03:08:37.925Z,22.70
2022-12-04T03:11:26.448Z,23.20
2022-12-04T03:14:17.548Z,23.42
2022-12-04T03:17:10.311Z,23.50
2022-12-04T03:20:01.640Z,23.75
2022-12-04T03:22:52.150Z,25.25
2022-12-04T03:26:03.176Z,24.80
2022-12-04T03:29:14.356Z,24.80
2022-12-04T03:32:15.996Z,24.30
2022-12-04T03:35:21.842Z,23.50
2022-12-04T03:38:16.702Z,23.83
2022-12-04T03:41:06.630Z,24.33
2022-12-04T03:47:06.771Z,23.95
2022-12-04T03:50:00.602Z,24.00
2022-12-04T03:53:05.943Z,25.55
2022-12-04T03:56:21.549Z,25.70
2022-12-04T03:59:20.314Z,25.10
2022-12-04T04:02:11.256Z,24.30
2022-12-04T04:04:59.270Z,24.48
2022-12-04T04:07:51.342Z,25.67
2022-12-04T04:10:36.570Z,25.80
2022-12-04T04:13:47.294Z,24.95
2022-12-04T04:16:55.176Z,25.15
2022-12-04T04:20:03.120Z,25.13
2022-12-04T04:23:09.057Z,25.60
2022-12-04T04:25:56.903Z,26.27
2022-12-04T04:28:42.638Z,25.60
2022-12-04T04:31:36.751Z,26.73
2022-12-04T04:34:27.779Z,25.88
2022-12-04T04:37:15.849Z,25.17
2022-12-04T04:40:19.416Z,25.83
2022-12-04T04:43:11.371Z,25.20
2022-12-04T04:46:06.952Z,26.02
2022-12-04T04:48:57.783Z,24.98
2022-12-04T04:51:44.700Z,25.35
2022-12-04T04:54:32.161Z,24.00
2022-12-04T04:57:32.702Z,24.20
2022-12-04T05:00:21.412Z,24.40
2022-12-04T05:03:06.810Z,23.55
2022-12-04T05:05:51.981Z,24.05
2022-12-04T05:08:37.937Z,24.70
2022-12-04T05:11:23.106Z,24.58
2022-12-04T05:14:09.574Z,25.00
2022-12-04T05:16:57.688Z,25.58
2022-12-04T05:19:54.688Z,24.67
2022-12-04T05:22:40.199Z,25.05
2022-12-04T05:25:25.877Z,24.75
2022-12-04T05:28:10.792Z,25.77
2022-12-04T05:31:01.758Z,25.58
2022-12-04T05:33:46.913Z,25.88
2022-12-04T05:36:32.055Z,26.98
2022-12-04T05:39:17.191Z,25.90
2022-12-04T05:42:02.492Z,25.17
2022-12-04T05:44:49.772Z,24.67
2022-12-04T05:47:40.247Z,24.27
2022-12-04T05:50:25.374Z,22.15
2022-12-04T05:53:10.486Z,21.67
2022-12-04T05:55:57.979Z,22.45
2022-12-04T05:58:43.295Z,22.13
2022-12-04T06:01:28.745Z,21.42
2022-12-04T06:04:14.022Z,21.15
2022-12-04T06:06:59.262Z,20.98
2022-12-04T06:09:46.140Z,22.15
2022-12-04T06:12:31.367Z,20.08
2022-12-04T06:15:16.576Z,20.67
2022-12-04T06:18:01.830Z,18.77
2022-12-04T06:20:47.380Z,18.50
2022-12-04T06:23:32.513Z,18.02
2022-12-04T06:26:19.678Z,19.10
2022-12-04T06:29:04.803Z,17.15
2022-12-04T06:31:50.147Z,17.70
2022-12-04T06:34:35.661Z,17.48
2022-12-04T06:37:23.255Z,16.48
2022-12-04T06:40:08.721Z,17.00
2022-12-04T06:42:54.146Z,17.25
2022-12-04T06:45:39.348Z,17.10
2022-12-04T06:48:24.921Z,16.85
2022-12-04T06:51:24.998Z,16.67
2022-12-04T06:54:10.899Z,17.45
2022-12-04T06:56:56.102Z,17.42
2022-12-04T06:59:41.547Z,18.08
2022-12-04T07:02:27.047Z,17.38
2022-12-04T07:05:12.132Z,17.67
2022-12-04T07:07:57.351Z,16.23
2022-12-04T07:10:43.070Z,17.25
2022-12-04T07:13:28.062Z,17.33
2022-12-04T07:16:15.312Z,17.23
2022-12-04T07:19:00.866Z,15.77
2022-12-04T07:21:46.394Z,16.77
2022-12-04T07:24:31.456Z,16.45
2022-12-04T07:27:16.591Z,17.23
2022-12-04T07:30:01.819Z,17.90
2022-12-04T07:32:46.923Z,17.60
2022-12-04T07:35:32.406Z,18.65
2022-12-04T07:38:17.624Z,18.50
2022-12-04T07:41:04.876Z,18.25
2022-12-04T07:43:49.928Z,18.90
2022-12-04T07:46:35.157Z,17.40
2022-12-04T07:49:20.395Z,17.60
2022-12-04T07:52:06.330Z,16.95
2022-12-04T07:54:51.702Z,17.65
2022-12-04T07:57:36.730Z,17.90
2022-12-04T08:00:22.157Z,17.27
2022-12-04T08:03:07.447Z,16.15
2022-12-04T08:05:52.476Z,18.05
2022-12-04T08:08:38.254Z,16.48
2022-12-04T08:11:25.093Z,17.17
2022-12-04T08:14:12.107Z,16.52
2022-12-04T08:16:57.417Z,16.55
2022-12-04T08:19:42.894Z,16.85
2022-12-04T08:22:28.183Z,16.35
2022-12-04T08:25:13.546Z,16.48
2022-12-04T08:27:59.872Z,15.05
2022-12-04T08:30:44.918Z,14.68
2022-12-04T08:33:30.102Z,14.23
2022-12-04T08:36:17.796Z,15.02
2022-12-04T08:39:03.332Z,14.30
2022-12-04T08:41:52.451Z,15.07
2022-12-04T08:44:41.815Z,13.90
2022-12-04T08:47:27.009Z,14.07
2022-12-04T08:50:12.292Z,14.38
2022-12-04T08:52:57.571Z,14.68
2022-12-04T08:55:42.882Z,14.73
2022-12-04T08:58:31.175Z,15.18
2022-12-04T09:01:17.202Z,14.77
2022-12-04T09:04:02.604Z,15.15
2022-12-04T09:06:47.626Z,15.20
2022-12-04T09:09:32.798Z,14.88
2022-12-04T09:12:18.103Z,15.32
2022-12-04T09:15:03.765Z,15.60
2022-12-04T09:17:48.646Z,15.70
2022-12-04T09:20:33.856Z,14.77
2022-12-04T09:23:19.059Z,15.70
2022-12-04T09:26:05.058Z,16.10
2022-12-04T09:28:51.155Z,14.23
2022-12-04T09:31:36.250Z,14.95
2022-12-04T09:34:21.329Z,15.20
2022-12-04T09:37:06.267Z,16.30
2022-12-04T09:39:51.390Z,15.85
2022-12-04T09:42:42.630Z,15.57
2022-12-04T09:45:28.728Z,15.70
2022-12-04T09:48:18.375Z,15.77
2022-12-04T09:51:06.383Z,15.32
2022-12-04T09:53:57.350Z,17.15
2022-12-04T09:56:48.241Z,16.42
2022-12-04T09:59:33.426Z,15.52
2022-12-04T10:02:29.647Z,14.70
2022-12-04T10:05:41.616Z,15.32
2022-12-04T10:08:35.281Z,14.43
2022-12-04T10:11:31.979Z,14.80
2022-12-04T10:14:30.434Z,13.77
2022-12-04T10:17:37.522Z,12.32
2022-12-04T10:20:43.375Z,13.20
2022-12-04T10:24:07.077Z,12.73
2022-12-04T10:26:56.563Z,12.23
2022-12-04T10:29:46.454Z,11.85
2022-12-04T10:32:35.134Z,12.48
2022-12-04T10:35:27.437Z,11.85
2022-12-04T10:38:51.524Z,11.98
2022-12-04T10:42:01.553Z,11.57
2022-12-04T10:44:46.536Z,10.90
2022-12-04T10:47:33.243Z,10.38
2022-12-04T10:50:21.725Z,9.52
2022-12-04T10:53:12.232Z,10.07
2022-12-04T10:56:35.053Z,10.35
2022-12-04T10:59:20.919Z,8.38
2022-12-04T11:02:28.851Z,8.13
2022-12-04T11:05:30.852Z,8.77
2022-12-04T11:08:30.152Z,9.02
2022-12-04T11:11:22.496Z,8.98
2022-12-04T11:14:15.731Z,10.30
2022-12-04T11:17:05.326Z,9.95
2022-12-04T11:19:59.781Z,9.68
2022-12-04T11:22:54.748Z,9.43
2022-12-04T11:25:47.032Z,10.25
2022-12-04T11:28:41.605Z,9.77
2022-12-04T11:31:30.208Z,10.85
2022-12-04T11:34:21.223Z,10.55
2022-12-04T11:37:18.159Z,10.20
2022-12-04T11:40:16.729Z,10.77
2022-12-04T11:43:16.318Z,10.10
2022-12-04T11:46:05.182Z,10.50
2022-12-04T11:48:50.661Z,10.68
2022-12-04T11:51:41.967Z,10.02
2022-12-04T11:54:33.936Z,11.30
2022-12-04T11:57:36.689Z,10.68
2022-12-04T12:00:23.451Z,10.63
2022-12-04T12:03:26.947Z,10.82
2022-12-04T12:06:18.222Z,11.07
2022-12-04T12:09:18.341Z,10.13
2022-12-04T12:15:24.807Z,10.23
2022-12-04T12:18:36.145Z,11.18
2022-12-04T12:21:21.090Z,12.23
2022-12-04T12:24:25.167Z,11.35
2022-12-04T12:27:34.654Z,10.75
2022-12-04T12:30:22.215Z,11.75
2022-12-04T12:33:19.489Z,12.07
2022-12-04T12:36:10.674Z,12.07
2022-12-04T12:39:01.122Z,10.65
2022-12-04T12:41:50.266Z,11.55
2022-12-04T12:44:51.462Z,11.90
2022-12-04T12:47:42.631Z,11.57
2022-12-04T12:51:21.880Z,12.73
2022-12-04T12:54:34.318Z,11.80
2022-12-04T12:57:42.856Z,12.43
2022-12-04T13:00:32.115Z,13.10
2022-12-04T13:03:40.430Z,12.98
2022-12-04T13:06:33.662Z,12.98
2022-12-04T13:09:30.069Z,12.38
2022-12-04T13:12:16.806Z,12.65
2022-12-04T13:15:02.220Z,13.70
2022-12-04T13:17:50.288Z,13.40
2022-12-04T13:20:44.387Z,14.00
2022-12-04T13:23:56.008Z,13.13
2022-12-04T13:27:04.293Z,13.90
2022-12-04T13:29:59.787Z,13.60
2022-12-04T13:33:03.559Z,14.88
2022-12-04T13:36:16.468Z,14.23
2022-12-04T13:39:34.092Z,14.38
2022-12-04T13:42:24.295Z,15.20
2022-12-04T13:45:27.462Z,14.90
2022-12-04T13:48:12.482Z,15.38
2022-12-04T13:51:06.904Z,15.70
2022-12-04T13:54:23.170Z,14.85
2022-12-04T13:57:17.279Z,15.05
2022-12-04T14:00:27.570Z,14.57
2022-12-04T14:03:27.845Z,14.90
2022-12-04T14:06:25.903Z,14.93
2022-12-04T14:09:26.419Z,15.75
2022-12-04T14:12:14.551Z,15.35
2022-12-04T14:15:09.155Z,14.75
2022-12-04T14:18:20.902Z,15.20
2022-12-04T14:21:06.260Z,15.27
2022-12-04T14:23:52.667Z,16.10
2022-12-04T14:27:10.652Z,15.00
2022-12-04T14:29:58.520Z,13.63
2022-12-04T14:32:44.754Z,14.30
2022-12-04T14:35:29.983Z,9.25
2022-12-04T14:38:20.379Z,13.77
2022-12-04T14:41:05.703Z,11.65
2022-12-04T14:43:51.504Z,11.85
2022-12-04T14:46:46.246Z,13.02
2022-12-04T14:49:31.590Z,12.50
2022-12-04T14:52:51.765Z,13.90
2022-12-04T14:55:55.101Z,12.85
2022-12-04T14:58:40.075Z,12.00
2022-12-04T15:01:30.148Z,10.32
2022-12-04T15:07:32.194Z,13.50
2022-12-04T15:10:42.802Z,13.63
2022-12-04T15:13:33.589Z,10.90
2022-12-04T15:16:21.137Z,11.60
2022-12-04T15:19:17.911Z,12.95
2022-12-04T15:22:10.117Z,12.23
2022-12-04T15:24:57.109Z,12.52
2022-12-04T15:27:42.730Z,12.05
2022-12-04T15:30:30.687Z,12.40
2022-12-04T15:33:25.881Z,10.50
2022-12-04T15:36:40.743Z,9.57
2022-12-04T15:39:39.664Z,10.02
2022-12-04T15:42:24.629Z,9.45
2022-12-04T15:45:09.574Z,9.20
2022-12-04T15:47:54.855Z,9.35
2022-12-04T15:50:42.192Z,9.60
2022-12-04T15:53:31.814Z,9.95
2022-12-04T15:56:19.960Z,8.95
2022-12-04T15:59:05.434Z,10.30
2022-12-04T16:01:51.151Z,9.48
2022-12-04T16:04:41.080Z,9.50
2022-12-04T16:07:29.921Z,10.40
2022-12-04T16:10:23.294Z,8.85
2022-12-04T16:13:31.202Z,9.88
2022-12-04T16:16:22.332Z,10.63
2022-12-04T16:19:31.841Z,10.98
2022-12-04T16:22:21.056Z,9.68
2022-12-04T16:25:07.474Z,11.38
2022-12-04T16:27:52.768Z,10.18
2022-12-04T16:30:37.922Z,10.68
2022-12-04T16:33:23.216Z,11.32
2022-12-04T16:36:11.262Z,10.73
2022-12-04T16:38:56.333Z,11.65
2022-12-04T16:41:43.911Z,10.80
2022-12-04T16:44:28.966Z,10.57
2022-12-04T16:47:14.526Z,11.38
2022-12-04T16:49:59.686Z,11.77
2022-12-04T16:52:45.185Z,12.68
2022-12-04T16:55:38.962Z,11.55
2022-12-04T16:58:24.328Z,12.80
2022-12-04T17:01:25.456Z,13.20
2022-12-04T17:04:11.074Z,13.77
2022-12-04T17:06:56.236Z,14.23
2022-12-04T17:09:41.494Z,14.63
2022-12-04T17:12:26.385Z,15.07
2022-12-04T17:15:12.984Z,16.27
2022-12-04T17:17:57.851Z,15.45
2022-12-04T17:20:44.384Z,16.52
2022-12-04T17:23:29.734Z,15.98
2022-12-04T17:26:15.655Z,18.13
2022-12-04T17:29:00.900Z,17.15
2022-12-04T17:31:46.136Z,16.35
2022-12-04T17:34:31.272Z,17.15
2022-12-04T17:37:16.452Z,16.15
2022-12-04T17:40:02.017Z,16.77
2022-12-04T17:42:47.047Z,17.33
2022-12-04T17:45:32.216Z,16.17
2022-12-04T17:48:17.509Z,18.15
2022-12-04T17:51:24.671Z,17.45
2022-12-04T17:54:10.812Z,17.45
2022-12-04T17:56:58.001Z,18.38
2022-12-04T17:59:44.473Z,20.05
2022-12-04T18:02:29.572Z,17.45
2022-12-04T18:05:14.851Z,17.13
2022-12-04T18:08:00.288Z,17.75
2022-12-04T18:10:45.297Z,32.00
2022-12-04T18:13:30.636Z,25.30
2022-12-04T18:16:16.041Z,23.80
2022-12-04T18:19:03.099Z,21.02
2022-12-04T18:21:49.244Z,16.83
2022-12-04T18:24:34.295Z,20.23
2022-12-04T18:27:19.682Z,30.90
2022-12-04T18:30:05.836Z,23.15
2022-12-04T18:32:50.888Z,17.95
2022-12-04T18:35:36.901Z,17.63
2022-12-04T18:38:23.210Z,21.13
2022-12-04T18:41:11.421Z,20.05
2022-12-04T18:43:57.324Z,16.92
2022-12-04T18:46:43.143Z,17.27
2022-12-04T18:49:28.254Z,16.33
2022-12-04T18:52:13.635Z,19.75
2022-12-04T18:54:58.766Z,16.80
2022-12-04T18:57:43.809Z,16.10
2022-12-04T19:00:29.147Z,16.63
2022-12-04T19:03:14.664Z,17.00
2022-12-04T19:05:59.864Z,16.80
2022-12-04T19:08:45.094Z,16.42
2022-12-04T19:11:31.100Z,17.40
2022-12-04T19:14:23.548Z,16.58
2022-12-04T19:17:09.247Z,19.65
2022-12-04T19:19:54.916Z,17.10
2022-12-04T19:22:40.236Z,17.55
2022-12-04T19:25:25.528Z,16.98
2022-12-04T19:28:10.786Z,16.73
2022-12-04T19:30:56.652Z,17.30
2022-12-04T19:33:42.016Z,17.00
2022-12-04T19:36:30.140Z,18.00
2022-12-04T19:39:15.120Z,16.25
2022-12-04T19:42:00.620Z,22.00
2022-12-04T19:44:48.753Z,17.05
2022-12-04T19:47:34.634Z,16.15
2022-12-04T19:50:19.902Z,17.63
2022-12-04T19:53:05.062Z,17.60
2022-12-04T19:55:50.256Z,17.17
2022-12-04T19:58:35.983Z,17.15
2022-12-04T20:01:27.269Z,17.08
2022-12-04T20:04:12.621Z,18.00
2022-12-04T20:06:58.018Z,18.15
2022-12-04T20:09:47.371Z,17.42
2022-12-04T20:12:35.771Z,16.60
2022-12-04T20:15:21.350Z,17.25
2022-12-04T20:18:06.674Z,17.48
2022-12-04T20:20:56.276Z,17.60
2022-12-04T20:23:46.382Z,23.42
2022-12-04T20:26:37.234Z,16.73
2022-12-04T20:29:22.599Z,21.15
2022-12-04T20:32:07.776Z,16.63
2022-12-04T20:34:53.147Z,15.52
2022-12-04T20:37:38.410Z,15.63
2022-12-04T20:40:23.684Z,15.20
2022-12-04T20:43:08.828Z,15.38
2022-12-04T20:45:54.170Z,15.40
2022-12-04T20:48:39.474Z,15.73
2022-12-04T20:51:30.023Z,33.88
2022-12-04T20:54:18.576Z,16.38
2022-12-04T20:57:03.618Z,15.45
2022-12-04T20:59:48.961Z,17.90
2022-12-04T21:02:34.344Z,19.20
2022-12-04T21:05:19.973Z,15.80
2022-12-04T21:08:05.040Z,14.98
2022-12-04T21:10:50.371Z,15.32
2022-12-04T21:13:55.740Z,15.55
2022-12-04T21:16:41.462Z,16.10
2022-12-04T21:19:26.883Z,14.65
2022-12-04T21:22:13.191Z,14.85
2022-12-04T21:24:58.420Z,13.95
2022-12-04T21:27:43.838Z,15.75
2022-12-04T21:30:28.997Z,16.40
2022-12-04T21:33:14.243Z,15.63
2022-12-04T21:36:12.592Z,16.08
2022-12-04T21:38:58.303Z,16.70
2022-12-04T21:42:02.077Z,16.70
2022-12-04T21:44:47.316Z,14.80
2022-12-04T21:47:33.430Z,16.90
2022-12-04T21:50:18.634Z,16.48
2022-12-04T21:53:03.992Z,17.60
2022-12-04T21:55:55.985Z,18.83
2022-12-04T21:58:41.128Z,19.13
2022-12-04T22:01:27.145Z,18.25
2022-12-04T22:04:12.882Z,18.63
2022-12-04T22:06:58.013Z,17.52
2022-12-04T22:09:43.422Z,24.70
2022-12-04T22:15:39.289Z,20.90
2022-12-04T22:18:24.275Z,22.17
2022-12-04T22:21:15.976Z,19.05
2022-12-04T22:24:03.005Z,19.25
2022-12-04T22:26:47.986Z,17.48
2022-12-04T22:29:49.729Z,24.52
2022-12-04T22:32:35.793Z,18.90
2022-12-04T22:35:21.209Z,18.17
2022-12-04T22:38:06.497Z,20.48
2022-12-04T22:40:51.783Z,19.95
2022-12-04T22:43:40.821Z,18.50
2022-12-04T22:46:26.381Z,20.03
2022-12-04T22:49:11.534Z,18.75
2022-12-04T22:51:56.837Z,18.98
2022-12-04T22:54:42.214Z,17.38
2022-12-04T22:57:27.824Z,17.77
2022-12-04T23:00:13.299Z,19.42
2022-12-04T23:02:58.319Z,17.85
2022-12-04T23:05:43.378Z,19.08
2022-12-04T23:08:28.422Z,17.75
2022-12-04T23:11:19.346Z,21.30
2022-12-04T23:14:07.171Z,18.75
2022-12-04T23:16:52.636Z,19.02
2022-12-04T23:19:37.839Z,18.65
2022-12-04T23:22:22.950Z,20.27
2022-12-04T23:25:08.346Z,19.40
2022-12-04T23:27:54.005Z,19.27
2022-12-04T23:30:45.072Z,19.60
2022-12-04T23:33:31.372Z,19.33
2022-12-04T23:36:16.959Z,18.13
2022-12-04T23:39:02.400Z,19.08
2022-12-04T23:41:47.734Z,18.50
2022-12-04T23:44:32.942Z,19.27
2022-12-04T23:47:18.453Z,18.30
2022-12-04T23:50:04.735Z,19.95
2022-12-04T23:52:50.039Z,19.40
2022-12-04T23:55:35.379Z,19.45
2022-12-04T23:58:20.752Z,20.10
